sensor_id;sensor_type;location;lat;lon;timestamp;temperature;humidity
6724;DHT22;3399;52.530;13.304;2023-04-07T00:00:39;5.80;79.10
6724;DHT22;3399;52.530;13.304;2023-04-07T00:03:04;5.70;79.50
6724;DHT22;3399;52.530;13.304;2023-04-07T00:05:32;5.70;80.30
6724;DHT22;3399;52.530;13.304;2023-04-07T00:07:57;5.60;80.70
6724;DHT22;3399;52.530;13.304;2023-04-07T00:10:23;5.50;82.10
6724;DHT22;3399;52.530;13.304;2023-04-07T00:12:49;5.50;82.30
6724;DHT22;3399;52.530;13.304;2023-04-07T00:15:15;5.40;83.00
6724;DHT22;3399;52.530;13.304;2023-04-07T00:17:40;5.30;83.70
6724;DHT22;3399;52.530;13.304;2023-04-07T00:20:06;5.20;84.80
6724;DHT22;3399;52.530;13.304;2023-04-07T00:22:32;5.10;85.80
6724;DHT22;3399;52.530;13.304;2023-04-07T00:24:57;5.00;86.70
6724;DHT22;3399;52.530;13.304;2023-04-07T00:27:23;4.90;87.90
6724;DHT22;3399;52.530;13.304;2023-04-07T00:29:48;4.90;88.70
6724;DHT22;3399;52.530;13.304;2023-04-07T00:32:14;4.80;90.30
6724;DHT22;3399;52.530;13.304;2023-04-07T00:34:39;4.70;90.50
6724;DHT22;3399;52.530;13.304;2023-04-07T00:37:05;4.60;90.70
6724;DHT22;3399;52.530;13.304;2023-04-07T00:39:31;4.60;91.90
6724;DHT22;3399;52.530;13.304;2023-04-07T00:41:57;4.60;91.60
6724;DHT22;3399;52.530;13.304;2023-04-07T00:44:22;4.50;91.50
6724;DHT22;3399;52.530;13.304;2023-04-07T00:46:48;4.60;91.30
6724;DHT22;3399;52.530;13.304;2023-04-07T00:49:14;4.50;91.80
6724;DHT22;3399;52.530;13.304;2023-04-07T00:51:42;4.60;92.30
6724;DHT22;3399;52.530;13.304;2023-04-07T00:54:08;4.50;92.60
6724;DHT22;3399;52.530;13.304;2023-04-07T00:56:34;4.40;93.00
6724;DHT22;3399;52.530;13.304;2023-04-07T00:59:00;4.30;93.50
6724;DHT22;3399;52.530;13.304;2023-04-07T01:01:30;4.30;93.90
6724;DHT22;3399;52.530;13.304;2023-04-07T01:04:04;4.30;94.30
6724;DHT22;3399;52.530;13.304;2023-04-07T01:06:34;4.20;94.90
6724;DHT22;3399;52.530;13.304;2023-04-07T01:09:13;4.10;95.20
6724;DHT22;3399;52.530;13.304;2023-04-07T01:11:52;4.10;95.40
6724;DHT22;3399;52.530;13.304;2023-04-07T01:14:20;4.10;95.50
6724;DHT22;3399;52.530;13.304;2023-04-07T01:16:51;4.10;95.60
6724;DHT22;3399;52.530;13.304;2023-04-07T01:19:52;4.10;95.40
6724;DHT22;3399;52.530;13.304;2023-04-07T01:22:24;4.00;96.00
6724;DHT22;3399;52.530;13.304;2023-04-07T01:27:53;4.00;95.60
6724;DHT22;3399;52.530;13.304;2023-04-07T01:30:28;4.00;96.30
6724;DHT22;3399;52.530;13.304;2023-04-07T01:32:57;4.00;96.50
6724;DHT22;3399;52.530;13.304;2023-04-07T01:35:26;4.00;96.40
6724;DHT22;3399;52.530;13.304;2023-04-07T01:37:54;3.90;96.80
6724;DHT22;3399;52.530;13.304;2023-04-07T01:40:20;3.70;97.10
6724;DHT22;3399;52.530;13.304;2023-04-07T01:42:47;3.60;97.80
6724;DHT22;3399;52.530;13.304;2023-04-07T01:45:15;3.60;98.50
6724;DHT22;3399;52.530;13.304;2023-04-07T01:47:41;3.50;99.00
6724;DHT22;3399;52.530;13.304;2023-04-07T01:50:09;3.50;98.70
6724;DHT22;3399;52.530;13.304;2023-04-07T01:52:36;3.40;99.40
6724;DHT22;3399;52.530;13.304;2023-04-07T01:55:03;3.40;99.70
6724;DHT22;3399;52.530;13.304;2023-04-07T01:57:28;3.30;99.80
6724;DHT22;3399;52.530;13.304;2023-04-07T01:59:54;3.20;99.90
6724;DHT22;3399;52.530;13.304;2023-04-07T02:02:19;3.20;99.90
6724;DHT22;3399;52.530;13.304;2023-04-07T02:04:54;3.20;99.90
6724;DHT22;3399;52.530;13.304;2023-04-07T02:07:30;3.10;99.90
6724;DHT22;3399;52.530;13.304;2023-04-07T02:09:59;3.00;99.90
6724;DHT22;3399;52.530;13.304;2023-04-07T02:12:27;3.00;99.90
6724;DHT22;3399;52.530;13.304;2023-04-07T02:14:54;3.00;99.90
6724;DHT22;3399;52.530;13.304;2023-04-07T02:17:23;3.00;99.90
6724;DHT22;3399;52.530;13.304;2023-04-07T02:19:50;3.00;99.90
6724;DHT22;3399;52.530;13.304;2023-04-07T02:22:17;2.90;99.90
6724;DHT22;3399;52.530;13.304;2023-04-07T02:24:43;2.90;99.90
6724;DHT22;3399;52.530;13.304;2023-04-07T02:27:08;2.90;99.90
6724;DHT22;3399;52.530;13.304;2023-04-07T02:29:34;2.90;99.90
6724;DHT22;3399;52.530;13.304;2023-04-07T02:31:59;2.90;99.90
6724;DHT22;3399;52.530;13.304;2023-04-07T02:34:25;2.90;99.90
6724;DHT22;3399;52.530;13.304;2023-04-07T02:36:50;2.90;99.90
6724;DHT22;3399;52.530;13.304;2023-04-07T02:39:16;2.90;99.90
6724;DHT22;3399;52.530;13.304;2023-04-07T02:41:41;2.90;99.90
6724;DHT22;3399;52.530;13.304;2023-04-07T02:44:07;2.90;99.90
6724;DHT22;3399;52.530;13.304;2023-04-07T02:46:32;2.90;99.90
6724;DHT22;3399;52.530;13.304;2023-04-07T02:48:58;3.00;99.90
6724;DHT22;3399;52.530;13.304;2023-04-07T02:51:23;3.00;99.90
6724;DHT22;3399;52.530;13.304;2023-04-07T02:53:49;3.00;99.90
6724;DHT22;3399;52.530;13.304;2023-04-07T02:56:15;3.00;99.90
6724;DHT22;3399;52.530;13.304;2023-04-07T02:58:41;3.00;99.90
6724;DHT22;3399;52.530;13.304;2023-04-07T03:01:06;3.00;99.90
6724;DHT22;3399;52.530;13.304;2023-04-07T03:03:32;3.00;99.90
6724;DHT22;3399;52.530;13.304;2023-04-07T03:05:57;3.10;99.90
6724;DHT22;3399;52.530;13.304;2023-04-07T03:08:23;3.10;99.90
6724;DHT22;3399;52.530;13.304;2023-04-07T03:10:48;3.10;99.90
6724;DHT22;3399;52.530;13.304;2023-04-07T03:13:14;3.00;99.90
6724;DHT22;3399;52.530;13.304;2023-04-07T03:15:43;3.00;99.90
6724;DHT22;3399;52.530;13.304;2023-04-07T03:18:08;2.90;99.90
6724;DHT22;3399;52.530;13.304;2023-04-07T03:20:35;2.90;99.90
6724;DHT22;3399;52.530;13.304;2023-04-07T03:23:01;2.90;99.90
6724;DHT22;3399;52.530;13.304;2023-04-07T03:25:27;2.90;99.90
6724;DHT22;3399;52.530;13.304;2023-04-07T03:27:52;2.90;99.90
6724;DHT22;3399;52.530;13.304;2023-04-07T03:30:18;2.80;99.90
6724;DHT22;3399;52.530;13.304;2023-04-07T03:32:43;2.70;99.90
6724;DHT22;3399;52.530;13.304;2023-04-07T03:35:09;2.70;99.90
6724;DHT22;3399;52.530;13.304;2023-04-07T03:37:34;2.60;99.90
6724;DHT22;3399;52.530;13.304;2023-04-07T03:40:01;2.60;99.90
6724;DHT22;3399;52.530;13.304;2023-04-07T03:42:26;2.60;99.90
6724;DHT22;3399;52.530;13.304;2023-04-07T03:44:52;2.60;99.90
6724;DHT22;3399;52.530;13.304;2023-04-07T03:47:17;2.60;99.90
6724;DHT22;3399;52.530;13.304;2023-04-07T03:49:43;2.60;99.90
6724;DHT22;3399;52.530;13.304;2023-04-07T03:52:09;2.60;99.90
6724;DHT22;3399;52.530;13.304;2023-04-07T03:54:34;2.70;99.90
6724;DHT22;3399;52.530;13.304;2023-04-07T03:57:00;2.80;99.90
6724;DHT22;3399;52.530;13.304;2023-04-07T03:59:26;2.80;99.90
6724;DHT22;3399;52.530;13.304;2023-04-07T04:01:52;2.80;99.90
6724;DHT22;3399;52.530;13.304;2023-04-07T04:04:18;2.90;99.90
6724;DHT22;3399;52.530;13.304;2023-04-07T04:06:43;2.80;99.90
6724;DHT22;3399;52.530;13.304;2023-04-07T04:09:09;2.80;99.90
6724;DHT22;3399;52.530;13.304;2023-04-07T04:11:34;2.80;99.90
6724;DHT22;3399;52.530;13.304;2023-04-07T04:14:00;2.90;99.90
6724;DHT22;3399;52.530;13.304;2023-04-07T04:16:26;2.90;99.90
6724;DHT22;3399;52.530;13.304;2023-04-07T04:18:51;2.90;99.90
6724;DHT22;3399;52.530;13.304;2023-04-07T04:21:17;2.80;99.90
6724;DHT22;3399;52.530;13.304;2023-04-07T04:23:43;2.80;99.90
6724;DHT22;3399;52.530;13.304;2023-04-07T04:26:08;2.80;99.90
6724;DHT22;3399;52.530;13.304;2023-04-07T04:28:34;2.80;99.90
6724;DHT22;3399;52.530;13.304;2023-04-07T04:30:59;2.80;99.90
6724;DHT22;3399;52.530;13.304;2023-04-07T04:33:25;2.90;99.90
6724;DHT22;3399;52.530;13.304;2023-04-07T04:35:51;2.90;99.90
6724;DHT22;3399;52.530;13.304;2023-04-07T04:38:16;2.90;99.90
6724;DHT22;3399;52.530;13.304;2023-04-07T04:40:42;2.90;99.90
6724;DHT22;3399;52.530;13.304;2023-04-07T04:43:07;3.00;99.90
6724;DHT22;3399;52.530;13.304;2023-04-07T04:45:34;3.00;99.90
6724;DHT22;3399;52.530;13.304;2023-04-07T04:48:00;3.00;99.90
6724;DHT22;3399;52.530;13.304;2023-04-07T04:50:25;2.90;99.90
6724;DHT22;3399;52.530;13.304;2023-04-07T04:52:51;2.90;99.90
6724;DHT22;3399;52.530;13.304;2023-04-07T04:55:17;2.90;99.90
6724;DHT22;3399;52.530;13.304;2023-04-07T04:57:42;2.90;99.90
6724;DHT22;3399;52.530;13.304;2023-04-07T05:00:08;2.90;99.90
6724;DHT22;3399;52.530;13.304;2023-04-07T05:02:35;2.90;99.90
6724;DHT22;3399;52.530;13.304;2023-04-07T05:05:00;2.90;99.90
6724;DHT22;3399;52.530;13.304;2023-04-07T05:07:26;3.00;99.90
6724;DHT22;3399;52.530;13.304;2023-04-07T05:09:51;3.00;99.90
6724;DHT22;3399;52.530;13.304;2023-04-07T05:12:16;2.90;99.90
6724;DHT22;3399;52.530;13.304;2023-04-07T05:14:42;2.90;99.90
6724;DHT22;3399;52.530;13.304;2023-04-07T05:17:07;2.90;99.90
6724;DHT22;3399;52.530;13.304;2023-04-07T05:19:33;3.00;99.90
6724;DHT22;3399;52.530;13.304;2023-04-07T05:21:58;3.00;99.90
6724;DHT22;3399;52.530;13.304;2023-04-07T05:24:27;3.00;99.90
6724;DHT22;3399;52.530;13.304;2023-04-07T05:26:52;3.00;99.90
6724;DHT22;3399;52.530;13.304;2023-04-07T05:29:18;3.00;99.90
6724;DHT22;3399;52.530;13.304;2023-04-07T05:31:43;3.10;99.90
6724;DHT22;3399;52.530;13.304;2023-04-07T05:34:09;3.10;99.90
6724;DHT22;3399;52.530;13.304;2023-04-07T05:36:35;3.20;99.90
6724;DHT22;3399;52.530;13.304;2023-04-07T05:39:00;3.20;99.90
6724;DHT22;3399;52.530;13.304;2023-04-07T05:41:26;3.30;99.90
6724;DHT22;3399;52.530;13.304;2023-04-07T05:43:51;3.30;99.90
6724;DHT22;3399;52.530;13.304;2023-04-07T05:46:17;3.40;99.90
6724;DHT22;3399;52.530;13.304;2023-04-07T05:48:42;3.40;99.90
6724;DHT22;3399;52.530;13.304;2023-04-07T05:51:08;3.40;99.90
6724;DHT22;3399;52.530;13.304;2023-04-07T05:53:33;3.40;99.90
6724;DHT22;3399;52.530;13.304;2023-04-07T05:55:59;3.50;99.90
6724;DHT22;3399;52.530;13.304;2023-04-07T05:58:24;3.50;99.90
6724;DHT22;3399;52.530;13.304;2023-04-07T06:00:50;3.50;99.90
6724;DHT22;3399;52.530;13.304;2023-04-07T06:03:15;3.70;99.90
6724;DHT22;3399;52.530;13.304;2023-04-07T06:05:41;3.80;99.90
6724;DHT22;3399;52.530;13.304;2023-04-07T06:08:08;4.00;99.90
6724;DHT22;3399;52.530;13.304;2023-04-07T06:10:35;4.00;99.90
6724;DHT22;3399;52.530;13.304;2023-04-07T06:13:00;4.10;99.90
6724;DHT22;3399;52.530;13.304;2023-04-07T06:15:26;4.10;99.90
6724;DHT22;3399;52.530;13.304;2023-04-07T06:17:51;4.20;99.90
6724;DHT22;3399;52.530;13.304;2023-04-07T06:20:17;4.30;99.90
6724;DHT22;3399;52.530;13.304;2023-04-07T06:22:46;4.30;99.90
6724;DHT22;3399;52.530;13.304;2023-04-07T06:25:11;4.40;99.90
6724;DHT22;3399;52.530;13.304;2023-04-07T06:27:37;4.40;99.90
6724;DHT22;3399;52.530;13.304;2023-04-07T06:30:02;4.60;99.90
6724;DHT22;3399;52.530;13.304;2023-04-07T06:32:28;4.80;99.90
6724;DHT22;3399;52.530;13.304;2023-04-07T06:34:53;5.00;99.90
6724;DHT22;3399;52.530;13.304;2023-04-07T06:37:19;5.20;99.90
6724;DHT22;3399;52.530;13.304;2023-04-07T06:39:45;5.20;99.60
6724;DHT22;3399;52.530;13.304;2023-04-07T06:42:10;5.30;99.50
6724;DHT22;3399;52.530;13.304;2023-04-07T06:44:36;5.20;99.70
6724;DHT22;3399;52.530;13.304;2023-04-07T06:47:01;5.20;99.70
6724;DHT22;3399;52.530;13.304;2023-04-07T06:49:27;5.20;99.70
6724;DHT22;3399;52.530;13.304;2023-04-07T06:51:52;5.10;99.40
6724;DHT22;3399;52.530;13.304;2023-04-07T06:54:18;5.10;99.90
6724;DHT22;3399;52.530;13.304;2023-04-07T06:56:43;5.20;99.90
6724;DHT22;3399;52.530;13.304;2023-04-07T06:59:09;5.20;99.70
6724;DHT22;3399;52.530;13.304;2023-04-07T07:01:35;5.10;99.60
6724;DHT22;3399;52.530;13.304;2023-04-07T07:04:01;5.30;99.70
6724;DHT22;3399;52.530;13.304;2023-04-07T07:06:27;5.40;99.50
6724;DHT22;3399;52.530;13.304;2023-04-07T07:08:53;5.40;99.50
6724;DHT22;3399;52.530;13.304;2023-04-07T07:11:19;5.40;99.60
6724;DHT22;3399;52.530;13.304;2023-04-07T07:13:45;5.40;99.90
6724;DHT22;3399;52.530;13.304;2023-04-07T07:16:10;5.40;99.90
6724;DHT22;3399;52.530;13.304;2023-04-07T07:18:37;5.60;99.40
6724;DHT22;3399;52.530;13.304;2023-04-07T07:21:03;5.70;99.90
6724;DHT22;3399;52.530;13.304;2023-04-07T07:23:28;5.70;99.70
6724;DHT22;3399;52.530;13.304;2023-04-07T07:25:54;5.70;99.40
6724;DHT22;3399;52.530;13.304;2023-04-07T07:28:20;5.70;99.60
6724;DHT22;3399;52.530;13.304;2023-04-07T07:30:46;5.90;99.30
6724;DHT22;3399;52.530;13.304;2023-04-07T07:33:12;5.90;99.30
6724;DHT22;3399;52.530;13.304;2023-04-07T07:35:37;5.90;98.80
6724;DHT22;3399;52.530;13.304;2023-04-07T07:38:03;6.00;99.10
6724;DHT22;3399;52.530;13.304;2023-04-07T07:40:29;6.10;98.70
6724;DHT22;3399;52.530;13.304;2023-04-07T07:42:54;6.30;98.60
6724;DHT22;3399;52.530;13.304;2023-04-07T07:45:20;6.60;98.50
6724;DHT22;3399;52.530;13.304;2023-04-07T07:47:48;6.90;97.20
6724;DHT22;3399;52.530;13.304;2023-04-07T07:50:13;7.00;96.70
6724;DHT22;3399;52.530;13.304;2023-04-07T07:52:39;7.10;96.20
6724;DHT22;3399;52.530;13.304;2023-04-07T07:55:06;7.20;95.90
6724;DHT22;3399;52.530;13.304;2023-04-07T07:57:31;7.30;95.60
6724;DHT22;3399;52.530;13.304;2023-04-07T07:59:57;7.40;95.60
6724;DHT22;3399;52.530;13.304;2023-04-07T08:02:22;7.70;94.10
6724;DHT22;3399;52.530;13.304;2023-04-07T08:04:53;7.70;92.80
6724;DHT22;3399;52.530;13.304;2023-04-07T08:07:19;7.80;91.50
6724;DHT22;3399;52.530;13.304;2023-04-07T08:09:46;7.90;90.60
6724;DHT22;3399;52.530;13.304;2023-04-07T08:12:11;7.80;88.60
6724;DHT22;3399;52.530;13.304;2023-04-07T08:14:37;7.80;87.80
6724;DHT22;3399;52.530;13.304;2023-04-07T08:17:02;7.80;86.00
6724;DHT22;3399;52.530;13.304;2023-04-07T08:19:27;7.80;86.40
6724;DHT22;3399;52.530;13.304;2023-04-07T08:21:53;7.70;85.80
6724;DHT22;3399;52.530;13.304;2023-04-07T08:24:18;7.80;85.90
6724;DHT22;3399;52.530;13.304;2023-04-07T08:26:44;7.90;85.50
6724;DHT22;3399;52.530;13.304;2023-04-07T08:29:10;8.00;85.20
6724;DHT22;3399;52.530;13.304;2023-04-07T08:31:35;8.30;83.50
6724;DHT22;3399;52.530;13.304;2023-04-07T08:34:00;8.50;78.70
6724;DHT22;3399;52.530;13.304;2023-04-07T08:36:26;8.40;79.30
6724;DHT22;3399;52.530;13.304;2023-04-07T08:38:52;8.50;78.80
6724;DHT22;3399;52.530;13.304;2023-04-07T08:41:29;8.60;78.80
6724;DHT22;3399;52.530;13.304;2023-04-07T08:43:57;8.90;78.70
6724;DHT22;3399;52.530;13.304;2023-04-07T08:46:24;9.20;77.60
6724;DHT22;3399;52.530;13.304;2023-04-07T08:48:51;9.00;75.00
6724;DHT22;3399;52.530;13.304;2023-04-07T08:51:28;9.00;74.70
6724;DHT22;3399;52.530;13.304;2023-04-07T08:54:03;8.70;74.60
6724;DHT22;3399;52.530;13.304;2023-04-07T08:56:35;8.80;74.60
6724;DHT22;3399;52.530;13.304;2023-04-07T08:59:03;8.90;74.60
6724;DHT22;3399;52.530;13.304;2023-04-07T09:01:30;9.10;74.60
6724;DHT22;3399;52.530;13.304;2023-04-07T09:03:56;9.10;73.50
6724;DHT22;3399;52.530;13.304;2023-04-07T09:06:23;8.90;71.90
6724;DHT22;3399;52.530;13.304;2023-04-07T09:08:48;8.90;72.80
6724;DHT22;3399;52.530;13.304;2023-04-07T09:11:14;9.10;73.60
6724;DHT22;3399;52.530;13.304;2023-04-07T09:13:39;9.20;73.10
6724;DHT22;3399;52.530;13.304;2023-04-07T09:16:05;9.40;72.20
6724;DHT22;3399;52.530;13.304;2023-04-07T09:18:31;9.30;70.00
6724;DHT22;3399;52.530;13.304;2023-04-07T09:21:00;9.30;70.00
6724;DHT22;3399;52.530;13.304;2023-04-07T09:23:32;9.20;70.00
6724;DHT22;3399;52.530;13.304;2023-04-07T09:26:00;9.10;69.90
6724;DHT22;3399;52.530;13.304;2023-04-07T09:28:50;9.00;71.10
6724;DHT22;3399;52.530;13.304;2023-04-07T09:31:16;9.00;69.80
6724;DHT22;3399;52.530;13.304;2023-04-07T09:33:42;8.90;69.10
6724;DHT22;3399;52.530;13.304;2023-04-07T09:36:07;8.70;66.20
6724;DHT22;3399;52.530;13.304;2023-04-07T09:38:37;8.60;65.90
6724;DHT22;3399;52.530;13.304;2023-04-07T09:41:14;8.40;67.00
6724;DHT22;3399;52.530;13.304;2023-04-07T09:43:42;8.20;67.80
6724;DHT22;3399;52.530;13.304;2023-04-07T09:46:16;8.30;70.30
6724;DHT22;3399;52.530;13.304;2023-04-07T09:48:43;8.40;69.30
6724;DHT22;3399;52.530;13.304;2023-04-07T09:51:11;8.30;66.10
6724;DHT22;3399;52.530;13.304;2023-04-07T09:53:47;8.20;66.50
6724;DHT22;3399;52.530;13.304;2023-04-07T09:56:18;8.40;68.40
6724;DHT22;3399;52.530;13.304;2023-04-07T09:58:48;8.60;68.20
6724;DHT22;3399;52.530;13.304;2023-04-07T10:01:16;8.80;68.10
6724;DHT22;3399;52.530;13.304;2023-04-07T10:03:42;9.00;67.10
6724;DHT22;3399;52.530;13.304;2023-04-07T10:06:08;9.00;65.00
6724;DHT22;3399;52.530;13.304;2023-04-07T10:08:36;8.90;64.20
6724;DHT22;3399;52.530;13.304;2023-04-07T10:11:03;8.90;65.20
6724;DHT22;3399;52.530;13.304;2023-04-07T10:13:30;9.00;66.70
6724;DHT22;3399;52.530;13.304;2023-04-07T10:15:57;9.10;66.60
6724;DHT22;3399;52.530;13.304;2023-04-07T10:18:28;9.10;67.10
6724;DHT22;3399;52.530;13.304;2023-04-07T10:20:56;9.10;67.40
6724;DHT22;3399;52.530;13.304;2023-04-07T10:25:58;9.10;67.30
6724;DHT22;3399;52.530;13.304;2023-04-07T10:28:25;9.10;67.10
6724;DHT22;3399;52.530;13.304;2023-04-07T10:30:52;9.10;67.90
6724;DHT22;3399;52.530;13.304;2023-04-07T10:33:50;8.80;67.50
6724;DHT22;3399;52.530;13.304;2023-04-07T10:36:17;8.60;68.30
6724;DHT22;3399;52.530;13.304;2023-04-07T10:41:40;8.50;70.70
6724;DHT22;3399;52.530;13.304;2023-04-07T10:44:08;8.40;70.60
6724;DHT22;3399;52.530;13.304;2023-04-07T10:49:14;8.50;73.30
6724;DHT22;3399;52.530;13.304;2023-04-07T10:51:40;8.50;73.60
6724;DHT22;3399;52.530;13.304;2023-04-07T10:54:17;8.50;73.50
6724;DHT22;3399;52.530;13.304;2023-04-07T10:57:06;8.70;74.20
6724;DHT22;3399;52.530;13.304;2023-04-07T10:59:40;9.00;74.10
6724;DHT22;3399;52.530;13.304;2023-04-07T11:04:42;9.20;77.20
6724;DHT22;3399;52.530;13.304;2023-04-07T11:07:09;9.10;79.90
6724;DHT22;3399;52.530;13.304;2023-04-07T11:09:35;9.10;84.90
6724;DHT22;3399;52.530;13.304;2023-04-07T11:12:01;9.20;89.30
6724;DHT22;3399;52.530;13.304;2023-04-07T11:14:31;9.10;91.00
6724;DHT22;3399;52.530;13.304;2023-04-07T11:16:57;9.00;93.00
6724;DHT22;3399;52.530;13.304;2023-04-07T11:19:23;8.60;95.00
6724;DHT22;3399;52.530;13.304;2023-04-07T11:21:49;8.50;97.30
6724;DHT22;3399;52.530;13.304;2023-04-07T11:24:33;8.40;98.00
6724;DHT22;3399;52.530;13.304;2023-04-07T11:26:59;8.30;99.90
6724;DHT22;3399;52.530;13.304;2023-04-07T11:29:32;8.30;99.90
6724;DHT22;3399;52.530;13.304;2023-04-07T11:31:59;8.30;99.90
6724;DHT22;3399;52.530;13.304;2023-04-07T11:34:32;8.50;99.90
6724;DHT22;3399;52.530;13.304;2023-04-07T11:37:17;8.60;99.90
6724;DHT22;3399;52.530;13.304;2023-04-07T11:39:43;8.60;99.90
6724;DHT22;3399;52.530;13.304;2023-04-07T11:42:10;8.60;99.90
6724;DHT22;3399;52.530;13.304;2023-04-07T11:44:44;8.40;99.90
6724;DHT22;3399;52.530;13.304;2023-04-07T11:47:10;8.40;99.90
6724;DHT22;3399;52.530;13.304;2023-04-07T11:49:43;8.40;99.90
6724;DHT22;3399;52.530;13.304;2023-04-07T11:52:10;8.20;99.90
6724;DHT22;3399;52.530;13.304;2023-04-07T11:54:43;8.10;99.90
6724;DHT22;3399;52.530;13.304;2023-04-07T11:57:09;8.10;99.90
6724;DHT22;3399;52.530;13.304;2023-04-07T11:59:37;8.00;99.90
6724;DHT22;3399;52.530;13.304;2023-04-07T12:02:03;7.90;99.90
6724;DHT22;3399;52.530;13.304;2023-04-07T12:04:28;7.80;99.90
6724;DHT22;3399;52.530;13.304;2023-04-07T12:06:54;7.70;99.90
6724;DHT22;3399;52.530;13.304;2023-04-07T12:09:32;7.80;99.90
6724;DHT22;3399;52.530;13.304;2023-04-07T12:12:01;7.70;99.90
6724;DHT22;3399;52.530;13.304;2023-04-07T12:14:27;7.60;99.90
6724;DHT22;3399;52.530;13.304;2023-04-07T12:16:53;7.40;99.90
6724;DHT22;3399;52.530;13.304;2023-04-07T12:19:21;7.20;99.90
6724;DHT22;3399;52.530;13.304;2023-04-07T12:21:47;7.10;99.90
6724;DHT22;3399;52.530;13.304;2023-04-07T12:24:13;7.30;99.90
6724;DHT22;3399;52.530;13.304;2023-04-07T12:26:38;7.40;99.90
6724;DHT22;3399;52.530;13.304;2023-04-07T12:29:04;7.50;99.90
6724;DHT22;3399;52.530;13.304;2023-04-07T12:31:30;7.70;99.90
6724;DHT22;3399;52.530;13.304;2023-04-07T12:33:57;7.60;99.90
6724;DHT22;3399;52.530;13.304;2023-04-07T12:36:23;7.40;99.90
6724;DHT22;3399;52.530;13.304;2023-04-07T12:38:49;7.30;99.90
6724;DHT22;3399;52.530;13.304;2023-04-07T12:41:14;7.20;99.90
6724;DHT22;3399;52.530;13.304;2023-04-07T12:43:40;7.00;99.90
6724;DHT22;3399;52.530;13.304;2023-04-07T12:46:05;7.10;99.90
6724;DHT22;3399;52.530;13.304;2023-04-07T12:48:31;7.20;99.90
6724;DHT22;3399;52.530;13.304;2023-04-07T12:50:57;7.40;99.90
6724;DHT22;3399;52.530;13.304;2023-04-07T12:53:22;7.40;99.90
6724;DHT22;3399;52.530;13.304;2023-04-07T12:55:48;7.40;99.90
6724;DHT22;3399;52.530;13.304;2023-04-07T12:58:13;7.40;99.90
6724;DHT22;3399;52.530;13.304;2023-04-07T13:00:39;7.50;99.90
6724;DHT22;3399;52.530;13.304;2023-04-07T13:03:05;7.60;99.90
6724;DHT22;3399;52.530;13.304;2023-04-07T13:05:31;7.80;99.90
6724;DHT22;3399;52.530;13.304;2023-04-07T13:07:57;7.80;99.90
6724;DHT22;3399;52.530;13.304;2023-04-07T13:10:23;8.00;99.90
6724;DHT22;3399;52.530;13.304;2023-04-07T13:12:49;8.10;99.90
6724;DHT22;3399;52.530;13.304;2023-04-07T13:15:14;8.10;99.90
6724;DHT22;3399;52.530;13.304;2023-04-07T13:17:40;8.00;99.90
6724;DHT22;3399;52.530;13.304;2023-04-07T13:20:06;7.90;99.90
6724;DHT22;3399;52.530;13.304;2023-04-07T13:22:32;7.60;99.90
6724;DHT22;3399;52.530;13.304;2023-04-07T13:24:58;7.50;99.90
6724;DHT22;3399;52.530;13.304;2023-04-07T13:27:23;7.60;99.90
6724;DHT22;3399;52.530;13.304;2023-04-07T13:29:49;7.60;99.90
6724;DHT22;3399;52.530;13.304;2023-04-07T13:32:15;7.70;99.90
6724;DHT22;3399;52.530;13.304;2023-04-07T13:34:41;7.80;99.90
6724;DHT22;3399;52.530;13.304;2023-04-07T13:37:08;7.60;99.90
6724;DHT22;3399;52.530;13.304;2023-04-07T13:39:33;7.50;99.90
6724;DHT22;3399;52.530;13.304;2023-04-07T13:41:59;7.40;99.90
6724;DHT22;3399;52.530;13.304;2023-04-07T13:44:25;7.30;99.90
6724;DHT22;3399;52.530;13.304;2023-04-07T13:46:52;7.20;99.90
6724;DHT22;3399;52.530;13.304;2023-04-07T13:49:17;7.10;99.90
6724;DHT22;3399;52.530;13.304;2023-04-07T13:51:43;7.10;99.90
6724;DHT22;3399;52.530;13.304;2023-04-07T13:54:08;7.20;99.90
6724;DHT22;3399;52.530;13.304;2023-04-07T13:56:34;7.30;99.90
6724;DHT22;3399;52.530;13.304;2023-04-07T13:59:05;7.40;99.90
6724;DHT22;3399;52.530;13.304;2023-04-07T14:01:32;7.40;99.90
6724;DHT22;3399;52.530;13.304;2023-04-07T14:03:58;7.20;99.90
6724;DHT22;3399;52.530;13.304;2023-04-07T14:06:24;7.20;99.90
6724;DHT22;3399;52.530;13.304;2023-04-07T14:08:51;7.20;99.90
6724;DHT22;3399;52.530;13.304;2023-04-07T14:11:20;7.10;99.90
6724;DHT22;3399;52.530;13.304;2023-04-07T14:13:47;7.00;99.90
6724;DHT22;3399;52.530;13.304;2023-04-07T14:16:13;7.10;99.90
6724;DHT22;3399;52.530;13.304;2023-04-07T14:18:38;7.10;99.90
6724;DHT22;3399;52.530;13.304;2023-04-07T14:21:07;7.00;99.90
6724;DHT22;3399;52.530;13.304;2023-04-07T14:23:33;7.00;99.90
6724;DHT22;3399;52.530;13.304;2023-04-07T14:25:58;6.90;99.90
6724;DHT22;3399;52.530;13.304;2023-04-07T14:28:26;6.80;99.90
6724;DHT22;3399;52.530;13.304;2023-04-07T14:30:52;6.80;99.90
6724;DHT22;3399;52.530;13.304;2023-04-07T14:33:19;6.70;99.90
6724;DHT22;3399;52.530;13.304;2023-04-07T14:35:44;6.70;99.90
6724;DHT22;3399;52.530;13.304;2023-04-07T14:38:10;6.70;99.90
6724;DHT22;3399;52.530;13.304;2023-04-07T14:40:36;6.70;99.90
6724;DHT22;3399;52.530;13.304;2023-04-07T14:43:01;6.70;99.90
6724;DHT22;3399;52.530;13.304;2023-04-07T14:45:28;6.70;99.90
6724;DHT22;3399;52.530;13.304;2023-04-07T14:47:53;6.80;99.90
6724;DHT22;3399;52.530;13.304;2023-04-07T14:50:19;6.90;99.90
6724;DHT22;3399;52.530;13.304;2023-04-07T14:52:45;6.90;99.90
6724;DHT22;3399;52.530;13.304;2023-04-07T14:55:10;6.90;99.90
6724;DHT22;3399;52.530;13.304;2023-04-07T14:57:37;7.00;99.90
6724;DHT22;3399;52.530;13.304;2023-04-07T15:00:03;7.00;99.90
6724;DHT22;3399;52.530;13.304;2023-04-07T15:02:32;7.00;99.90
6724;DHT22;3399;52.530;13.304;2023-04-07T15:04:57;7.00;99.90
6724;DHT22;3399;52.530;13.304;2023-04-07T15:07:24;6.90;99.90
6724;DHT22;3399;52.530;13.304;2023-04-07T15:09:49;6.80;99.90
6724;DHT22;3399;52.530;13.304;2023-04-07T15:12:15;6.80;99.90
6724;DHT22;3399;52.530;13.304;2023-04-07T15:14:41;6.90;99.90
6724;DHT22;3399;52.530;13.304;2023-04-07T15:17:06;6.90;99.90
6724;DHT22;3399;52.530;13.304;2023-04-07T15:19:32;6.80;99.90
6724;DHT22;3399;52.530;13.304;2023-04-07T15:21:58;6.80;99.90
6724;DHT22;3399;52.530;13.304;2023-04-07T15:24:23;6.70;99.90
6724;DHT22;3399;52.530;13.304;2023-04-07T15:26:48;6.70;99.90
6724;DHT22;3399;52.530;13.304;2023-04-07T15:29:14;6.80;99.90
6724;DHT22;3399;52.530;13.304;2023-04-07T15:31:39;6.80;99.90
6724;DHT22;3399;52.530;13.304;2023-04-07T15:34:05;6.80;99.90
6724;DHT22;3399;52.530;13.304;2023-04-07T15:36:30;6.80;99.90
6724;DHT22;3399;52.530;13.304;2023-04-07T15:38:57;6.80;99.90
6724;DHT22;3399;52.530;13.304;2023-04-07T15:41:26;6.70;99.90
6724;DHT22;3399;52.530;13.304;2023-04-07T15:43:51;6.80;99.90
6724;DHT22;3399;52.530;13.304;2023-04-07T15:46:17;6.80;99.90
6724;DHT22;3399;52.530;13.304;2023-04-07T15:48:42;6.80;99.90
6724;DHT22;3399;52.530;13.304;2023-04-07T15:51:08;6.80;99.90
6724;DHT22;3399;52.530;13.304;2023-04-07T15:53:33;6.70;99.90
6724;DHT22;3399;52.530;13.304;2023-04-07T15:55:59;6.70;99.90
6724;DHT22;3399;52.530;13.304;2023-04-07T15:58:25;6.60;99.90
6724;DHT22;3399;52.530;13.304;2023-04-07T16:00:50;6.60;99.90
6724;DHT22;3399;52.530;13.304;2023-04-07T16:03:16;6.50;99.90
6724;DHT22;3399;52.530;13.304;2023-04-07T16:05:41;6.50;99.90
6724;DHT22;3399;52.530;13.304;2023-04-07T16:08:07;6.40;99.90
6724;DHT22;3399;52.530;13.304;2023-04-07T16:10:32;6.40;99.90
6724;DHT22;3399;52.530;13.304;2023-04-07T16:12:58;6.40;99.90